Time;durP1;ratioP1;P1;durP2;ratioP2;P2;SDS_P1;SDS_P2;PMS_P1;PMS_P2;Temp;Humidity;BMP_temperature;BMP_pressure;BME280_temperature;BME280_humidity;BME280_pressure;Samples;Min_cycle;Max_cycle;Signal;HPM_P1;HPM_P2
2023/01/11 00:03:19;;;;;;;;;;;10.10;99.90;;;;;;8371260;28;19933;-67
2023/01/11 00:07:20;;;;;;;;;;;10.20;99.90;;;;;;8381758;28;19929;-67
2023/01/11 00:11:22;;;;;;;;;;;10.20;99.90;;;;;;8376255;28;19966;-67
2023/01/11 00:15:23;;;;;;;;;;;10.20;99.90;;;;;;8381156;28;19925;-68
2023/01/11 00:19:25;;;;;;;;;;;10.30;99.90;;;;;;8384178;28;20448;-67
2023/01/11 00:23:26;;;;;;;;;;;10.30;99.90;;;;;;8382380;28;19981;-67
2023/01/11 00:27:28;;;;;;;;;;;10.40;99.90;;;;;;8381025;28;19982;-67
2023/01/11 00:31:29;;;;;;;;;;;10.40;99.90;;;;;;8375443;28;21408;-67
2023/01/11 00:35:31;;;;;;;;;;;10.40;99.90;;;;;;8384215;28;19928;-67
2023/01/11 00:39:33;;;;;;;;;;;10.40;99.90;;;;;;8378393;28;20328;-67
2023/01/11 00:47:59;;;;;;;;;;;10.50;99.90;;;;;;8382749;28;19928;-67
2023/01/11 00:52:00;;;;;;;;;;;10.50;99.90;;;;;;8375724;28;20067;-68
2023/01/11 00:56:02;;;;;;;;;;;10.50;99.90;;;;;;8361453;28;19974;-68
2023/01/11 01:00:04;;;;;;;;;;;10.50;99.90;;;;;;8381989;28;19928;-68
2023/01/11 01:04:05;;;;;;;;;;;10.50;99.90;;;;;;8362999;28;19928;-67
2023/01/11 01:08:07;;;;;;;;;;;10.50;99.90;;;;;;8360748;28;19932;-68
2023/01/11 01:12:08;;;;;;;;;;;10.60;99.90;;;;;;8373577;28;19935;-67
2023/01/11 01:16:10;;;;;;;;;;;10.60;99.90;;;;;;8369784;28;20384;-68
2023/01/11 01:20:12;;;;;;;;;;;10.60;99.90;;;;;;8361329;28;19959;-68
2023/01/11 01:24:14;;;;;;;;;;;10.70;99.90;;;;;;8378341;28;19925;-67
2023/01/11 01:28:17;;;;;;;;;;;10.70;99.90;;;;;;8377801;28;20396;-67
2023/01/11 01:32:19;;;;;;;;;;;10.70;99.90;;;;;;8377082;28;20247;-68
2023/01/11 01:36:20;;;;;;;;;;;10.70;99.90;;;;;;8378927;28;20453;-67
2023/01/11 01:40:22;;;;;;;;;;;10.70;99.90;;;;;;8378951;28;19928;-68
2023/01/11 01:44:42;;;;;;;;;;;10.70;99.90;;;;;;8355994;28;19924;-68
2023/01/11 01:48:49;;;;;;;;;;;10.80;99.90;;;;;;8378022;28;20023;-68
2023/01/11 01:52:54;;;;;;;;;;;10.80;99.90;;;;;;8359183;28;19985;-68
2023/01/11 01:56:58;;;;;;;;;;;10.80;99.90;;;;;;8374284;28;19963;-67
2023/01/11 02:01:45;;;;;;;;;;;10.90;99.90;;;;;;8372928;28;19924;-68
2023/01/11 02:05:22;;;;;;;;;;;10.90;99.90;;;;;;8375006;28;20292;-67
2023/01/11 02:09:23;;;;;;;;;;;10.90;99.90;;;;;;8356871;28;20384;-68
2023/01/11 02:13:25;;;;;;;;;;;10.90;99.90;;;;;;8377747;28;19994;-68
2023/01/11 02:17:27;;;;;;;;;;;11.00;99.90;;;;;;8374435;28;19934;-67
2023/01/11 02:21:44;;;;;;;;;;;10.90;99.90;;;;;;8375413;28;19942;-68
2023/01/11 02:25:54;;;;;;;;;;;11.00;99.90;;;;;;8363393;28;19925;-68
2023/01/11 02:30:13;;;;;;;;;;;11.00;99.90;;;;;;8375929;28;19989;-68
2023/01/11 02:34:25;;;;;;;;;;;11.00;99.90;;;;;;8366416;28;19931;-67
2023/01/11 02:38:37;;;;;;;;;;;11.00;99.90;;;;;;8387674;28;20338;-67
2023/01/11 02:47:14;;;;;;;;;;;11.10;99.90;;;;;;8374569;28;19932;-68
2023/01/11 02:51:19;;;;;;;;;;;11.10;99.90;;;;;;8374800;28;19924;-68
2023/01/11 02:55:32;;;;;;;;;;;11.20;99.90;;;;;;8374582;28;20065;-68
2023/01/11 02:59:34;;;;;;;;;;;11.20;99.90;;;;;;8373608;28;20383;-68
2023/01/11 03:03:35;;;;;;;;;;;11.20;99.90;;;;;;8348366;28;20015;-67
2023/01/11 03:08:06;;;;;;;;;;;11.20;99.90;;;;;;8372484;28;19971;-68
2023/01/11 03:16:49;;;;;;;;;;;11.20;99.90;;;;;;8382897;28;19950;-68
2023/01/11 03:21:13;;;;;;;;;;;11.30;99.90;;;;;;8377631;28;19977;-68
2023/01/11 03:25:44;;;;;;;;;;;11.30;99.90;;;;;;8380885;28;20299;-69
2023/01/11 03:29:49;;;;;;;;;;;11.30;99.90;;;;;;8300499;28;19932;-68
2023/01/11 03:33:55;;;;;;;;;;;11.30;99.90;;;;;;8364492;28;19924;-69
2023/01/11 03:38:00;;;;;;;;;;;11.40;99.90;;;;;;8373996;28;19970;-69
2023/01/11 03:42:04;;;;;;;;;;;11.40;99.90;;;;;;8370108;28;19924;-69
2023/01/11 03:46:09;;;;;;;;;;;11.30;99.90;;;;;;8377104;28;19939;-69
2023/01/11 03:50:11;;;;;;;;;;;11.30;99.90;;;;;;8362556;28;19932;-69
2023/01/11 03:54:15;;;;;;;;;;;11.40;99.90;;;;;;8371497;28;19925;-69
2023/01/11 03:58:17;;;;;;;;;;;11.40;99.90;;;;;;8364058;28;19925;-69
2023/01/11 04:02:20;;;;;;;;;;;11.40;99.90;;;;;;8372449;28;19924;-69
2023/01/11 04:06:22;;;;;;;;;;;11.40;99.90;;;;;;8373661;28;20394;-69
2023/01/11 04:10:24;;;;;;;;;;;11.40;99.90;;;;;;8372098;28;19925;-69
2023/01/11 04:14:25;;;;;;;;;;;11.40;99.90;;;;;;8373952;28;19924;-69
2023/01/11 04:18:27;;;;;;;;;;;11.40;99.90;;;;;;8368063;28;19933;-69
2023/01/11 04:22:29;;;;;;;;;;;11.40;99.90;;;;;;8374796;28;19928;-69
2023/01/11 04:26:30;;;;;;;;;;;11.40;99.90;;;;;;8379161;28;19935;-69
2023/01/11 04:30:32;;;;;;;;;;;11.40;99.90;;;;;;8369186;28;20556;-69
2023/01/11 04:34:34;;;;;;;;;;;11.40;99.90;;;;;;8374918;28;19939;-69
2023/01/11 04:38:36;;;;;;;;;;;11.40;99.90;;;;;;8374207;28;20019;-69
2023/01/11 04:42:37;;;;;;;;;;;11.40;99.90;;;;;;8361758;28;19933;-69
2023/01/11 04:46:39;;;;;;;;;;;11.30;99.90;;;;;;8380192;28;19929;-69
2023/01/11 04:50:41;;;;;;;;;;;11.30;99.90;;;;;;8359960;28;20277;-69
2023/01/11 04:54:43;;;;;;;;;;;11.30;99.90;;;;;;8374222;28;20369;-69
2023/01/11 04:58:45;;;;;;;;;;;11.30;99.90;;;;;;8375018;28;19964;-69
2023/01/11 05:02:46;;;;;;;;;;;11.30;99.90;;;;;;8372283;28;19924;-69
2023/01/11 05:06:48;;;;;;;;;;;11.30;99.90;;;;;;8354659;28;19978;-68
2023/01/11 05:10:53;;;;;;;;;;;11.30;99.90;;;;;;8358591;28;19967;-68
2023/01/11 05:14:55;;;;;;;;;;;11.30;99.90;;;;;;8383982;28;19976;-68
2023/01/11 05:18:58;;;;;;;;;;;11.20;99.90;;;;;;8379834;28;19964;-68
2023/01/11 05:23:00;;;;;;;;;;;11.20;99.90;;;;;;8380552;28;19924;-68
2023/01/11 05:27:02;;;;;;;;;;;11.20;99.90;;;;;;8384334;28;19964;-69
2023/01/11 05:31:04;;;;;;;;;;;11.20;99.90;;;;;;8381114;28;19940;-69
2023/01/11 05:35:08;;;;;;;;;;;11.10;99.90;;;;;;8383610;28;20414;-69
2023/01/11 05:39:11;;;;;;;;;;;11.10;99.90;;;;;;8387184;28;19925;-68
2023/01/11 05:43:13;;;;;;;;;;;11.10;99.90;;;;;;8370557;28;20035;-69
2023/01/11 05:47:14;;;;;;;;;;;11.10;99.90;;;;;;8372462;28;19928;-69
2023/01/11 05:51:16;;;;;;;;;;;11.10;99.90;;;;;;8364644;28;21292;-68
2023/01/11 05:55:18;;;;;;;;;;;11.00;99.90;;;;;;8367493;28;19982;-69
2023/01/11 05:59:20;;;;;;;;;;;11.00;99.90;;;;;;8368620;28;19924;-68
2023/01/11 06:03:23;;;;;;;;;;;11.00;99.90;;;;;;8370057;28;19935;-68
2023/01/11 06:07:24;;;;;;;;;;;11.00;99.90;;;;;;8374814;28;20028;-69
2023/01/11 06:11:26;;;;;;;;;;;10.90;99.90;;;;;;8377548;28;20255;-69
2023/01/11 06:15:28;;;;;;;;;;;10.90;99.90;;;;;;8375164;28;19928;-68
2023/01/11 06:19:29;;;;;;;;;;;10.80;99.90;;;;;;8374608;28;19964;-69
2023/01/11 06:23:32;;;;;;;;;;;10.80;99.90;;;;;;8378251;28;19960;-68
2023/01/11 06:27:34;;;;;;;;;;;10.80;99.90;;;;;;8375853;28;19982;-68
2023/01/11 06:31:35;;;;;;;;;;;10.70;99.90;;;;;;8388126;28;19932;-69
2023/01/11 06:35:38;;;;;;;;;;;10.60;99.90;;;;;;8373643;28;19961;-68
2023/01/11 06:39:40;;;;;;;;;;;10.50;99.90;;;;;;8349296;28;20284;-68
2023/01/11 06:43:42;;;;;;;;;;;10.50;99.90;;;;;;8376787;28;19928;-69
2023/01/11 06:47:43;;;;;;;;;;;10.50;99.90;;;;;;8376892;28;19971;-69
2023/01/11 06:51:45;;;;;;;;;;;10.50;99.90;;;;;;8370778;28;19964;-69
2023/01/11 06:55:51;;;;;;;;;;;10.40;99.90;;;;;;8359288;28;19986;-68
2023/01/11 06:59:52;;;;;;;;;;;10.30;99.90;;;;;;8377978;28;19924;-69
2023/01/11 07:03:54;;;;;;;;;;;10.30;99.90;;;;;;8379450;28;19928;-68
2023/01/11 07:07:55;;;;;;;;;;;10.30;99.90;;;;;;8380527;28;19946;-69
2023/01/11 07:11:57;;;;;;;;;;;10.20;99.90;;;;;;8372335;28;19924;-69
2023/01/11 07:15:59;;;;;;;;;;;10.20;99.90;;;;;;8377580;28;20002;-69
2023/01/11 07:20:01;;;;;;;;;;;10.20;99.90;;;;;;8373699;28;20371;-69
2023/01/11 07:24:03;;;;;;;;;;;10.10;99.90;;;;;;8381080;28;20400;-69
2023/01/11 07:28:05;;;;;;;;;;;10.10;99.90;;;;;;8361729;28;20295;-68
2023/01/11 07:32:09;;;;;;;;;;;10.00;99.90;;;;;;8381444;28;19979;-69
2023/01/11 07:36:11;;;;;;;;;;;9.90;99.90;;;;;;8386811;28;20019;-69
2023/01/11 07:40:15;;;;;;;;;;;9.90;99.90;;;;;;8384612;28;20015;-69
2023/01/11 07:44:16;;;;;;;;;;;9.80;99.90;;;;;;8388125;28;20410;-69
2023/01/11 07:48:20;;;;;;;;;;;9.70;99.90;;;;;;8389984;28;19931;-68
2023/01/11 07:52:21;;;;;;;;;;;9.70;99.90;;;;;;8386345;28;19933;-69
2023/01/11 07:56:23;;;;;;;;;;;9.70;99.90;;;;;;8383504;28;19928;-68
2023/01/11 08:00:25;;;;;;;;;;;9.60;99.90;;;;;;8369103;28;20031;-69
2023/01/11 08:04:27;;;;;;;;;;;9.60;99.90;;;;;;8384500;28;19987;-69
2023/01/11 08:08:28;;;;;;;;;;;9.60;99.90;;;;;;8388512;28;20464;-68
2023/01/11 08:16:52;;;;;;;;;;;9.50;99.90;;;;;;8396483;28;19928;-69
2023/01/11 08:20:53;;;;;;;;;;;9.50;99.90;;;;;;8389627;28;19924;-68
2023/01/11 08:24:55;;;;;;;;;;;9.50;99.90;;;;;;8393920;28;19931;-68
2023/01/11 08:28:57;;;;;;;;;;;9.50;99.90;;;;;;8398544;28;19924;-69
2023/01/11 08:33:02;;;;;;;;;;;9.50;99.90;;;;;;8385084;28;19928;-69
2023/01/11 08:37:04;;;;;;;;;;;9.50;99.90;;;;;;8386464;28;19935;-69
2023/01/11 08:41:13;;;;;;;;;;;9.50;99.90;;;;;;8383002;28;19924;-69
2023/01/11 08:45:15;;;;;;;;;;;9.40;99.90;;;;;;8375162;28;20080;-69
2023/01/11 08:49:16;;;;;;;;;;;9.40;99.90;;;;;;8394022;28;19983;-69
2023/01/11 08:53:19;;;;;;;;;;;9.30;99.90;;;;;;8391891;28;19939;-69
2023/01/11 08:57:21;;;;;;;;;;;9.30;99.90;;;;;;8394550;28;19932;-68
2023/01/11 09:01:22;;;;;;;;;;;9.30;99.90;;;;;;8387015;28;19925;-69
2023/01/11 09:05:24;;;;;;;;;;;9.30;99.90;;;;;;8386154;28;20277;-69
2023/01/11 09:09:26;;;;;;;;;;;9.30;99.90;;;;;;8379052;28;19971;-68
2023/01/11 09:13:27;;;;;;;;;;;9.30;99.90;;;;;;8387717;28;19928;-69
2023/01/11 09:17:29;;;;;;;;;;;9.30;99.90;;;;;;8407803;28;20935;-68
2023/01/11 09:21:31;;;;;;;;;;;9.30;99.90;;;;;;8384415;28;19932;-69
2023/01/11 09:25:33;;;;;;;;;;;9.40;99.90;;;;;;8385556;28;20368;-68
2023/01/11 09:29:34;;;;;;;;;;;9.60;99.90;;;;;;8398169;28;19924;-69
2023/01/11 09:33:38;;;;;;;;;;;9.90;99.90;;;;;;8382367;28;19931;-70
2023/01/11 09:37:43;;;;;;;;;;;10.10;99.90;;;;;;8381636;28;20389;-69
2023/01/11 09:42:04;;;;;;;;;;;10.20;99.90;;;;;;8388766;28;20002;-70
2023/01/11 09:46:07;;;;;;;;;;;10.30;99.90;;;;;;8385951;28;20024;-70
2023/01/11 09:50:29;;;;;;;;;;;10.30;99.90;;;;;;8381839;28;19932;-69
2023/01/11 09:54:30;;;;;;;;;;;10.30;99.90;;;;;;8387570;28;19931;-70
2023/01/11 09:58:41;;;;;;;;;;;10.30;99.90;;;;;;8385555;28;19925;-70
2023/01/11 10:02:52;;;;;;;;;;;10.20;99.90;;;;;;8383472;28;19963;-70
2023/01/11 10:07:09;;;;;;;;;;;10.20;99.90;;;;;;8372113;28;19931;-70
2023/01/11 10:11:23;;;;;;;;;;;10.30;99.90;;;;;;8376672;28;19968;-70
2023/01/11 10:16:06;;;;;;;;;;;10.60;99.90;;;;;;8384893;28;20438;-70
2023/01/11 10:20:34;;;;;;;;;;;10.70;99.90;;;;;;8376572;28;20003;-70
2023/01/11 10:24:40;;;;;;;;;;;10.70;99.90;;;;;;8380992;28;19928;-70
2023/01/11 10:29:02;;;;;;;;;;;10.80;99.90;;;;;;8375649;28;19936;-70
2023/01/11 10:33:41;;;;;;;;;;;10.90;99.90;;;;;;8379481;28;19928;-70
2023/01/11 10:37:53;;;;;;;;;;;10.90;99.90;;;;;;8383874;28;20062;-70
2023/01/11 10:42:04;;;;;;;;;;;11.10;99.90;;;;;;8385518;28;19924;-70
2023/01/11 10:46:26;;;;;;;;;;;11.30;99.90;;;;;;8387355;28;19933;-69
2023/01/11 10:50:40;;;;;;;;;;;11.50;99.90;;;;;;8365964;28;19935;-69
2023/01/11 10:54:45;;;;;;;;;;;11.60;99.90;;;;;;8384983;28;19999;-70
2023/01/11 10:58:56;;;;;;;;;;;11.90;99.90;;;;;;8372319;28;19929;-68
2023/01/11 11:03:07;;;;;;;;;;;12.10;99.90;;;;;;8382102;28;19932;-70
2023/01/11 11:07:11;;;;;;;;;;;12.30;99.90;;;;;;8381524;28;19931;-70
2023/01/11 11:11:19;;;;;;;;;;;12.40;99.90;;;;;;8379732;28;19931;-70
2023/01/11 11:15:39;;;;;;;;;;;12.50;99.90;;;;;;8389295;28;20003;-70
2023/01/11 11:19:41;;;;;;;;;;;12.60;99.90;;;;;;8401131;28;19967;-70
2023/01/11 11:23:43;;;;;;;;;;;12.40;99.90;;;;;;8385539;28;20536;-70
2023/01/11 11:27:53;;;;;;;;;;;12.40;99.90;;;;;;8387434;28;19946;-70
2023/01/11 11:31:57;;;;;;;;;;;12.30;99.90;;;;;;8380639;28;19933;-69
2023/01/11 11:36:03;;;;;;;;;;;12.00;99.90;;;;;;8390129;28;19967;-69
2023/01/11 11:40:25;;;;;;;;;;;11.80;99.90;;;;;;8376082;28;19990;-69
2023/01/11 11:44:27;;;;;;;;;;;11.50;99.90;;;;;;8378637;28;19946;-69
2023/01/11 11:48:30;;;;;;;;;;;11.40;99.90;;;;;;8380668;28;19933;-70
2023/01/11 11:52:32;;;;;;;;;;;11.40;99.90;;;;;;8387603;28;20407;-70
2023/01/11 11:56:34;;;;;;;;;;;11.50;99.90;;;;;;8389881;28;19972;-70
2023/01/11 12:00:43;;;;;;;;;;;11.40;99.90;;;;;;8390243;28;19932;-70
2023/01/11 12:04:46;;;;;;;;;;;11.10;99.90;;;;;;8387119;28;19928;-70
2023/01/11 12:08:48;;;;;;;;;;;11.00;99.90;;;;;;8390884;28;20441;-70
2023/01/11 12:12:51;;;;;;;;;;;10.90;99.90;;;;;;8359798;28;19929;-69
2023/01/11 12:16:53;;;;;;;;;;;10.80;99.90;;;;;;8389286;28;19939;-70
2023/01/11 12:20:55;;;;;;;;;;;10.80;99.90;;;;;;8383569;28;19924;-70
2023/01/11 12:25:15;;;;;;;;;;;11.00;99.90;;;;;;8383572;28;19931;-70
2023/01/11 12:29:23;;;;;;;;;;;11.10;99.90;;;;;;8378101;28;19928;-70
2023/01/11 12:33:28;;;;;;;;;;;11.10;99.90;;;;;;8382403;28;20050;-69
2023/01/11 12:37:51;;;;;;;;;;;11.20;99.90;;;;;;8379494;28;19929;-69
2023/01/11 12:42:09;;;;;;;;;;;11.20;99.90;;;;;;8380325;28;19924;-70
2023/01/11 12:46:26;;;;;;;;;;;11.10;99.90;;;;;;8379484;28;19925;-69
2023/01/11 12:50:30;;;;;;;;;;;11.10;99.90;;;;;;8376560;28;19924;-69
2023/01/11 12:54:51;;;;;;;;;;;11.00;99.90;;;;;;8375835;28;19924;-70
2023/01/11 12:58:52;;;;;;;;;;;11.10;99.90;;;;;;8381879;28;19963;-70
2023/01/11 13:02:57;;;;;;;;;;;11.20;99.90;;;;;;8363715;28;19975;-70
2023/01/11 13:06:59;;;;;;;;;;;11.30;99.90;;;;;;8388783;28;19924;-70
2023/01/11 13:11:09;;;;;;;;;;;11.60;99.90;;;;;;8384069;28;19933;-70
2023/01/11 13:15:11;;;;;;;;;;;12.20;99.90;;;;;;8392689;28;19931;-70
2023/01/11 13:19:17;;;;;;;;;;;12.30;99.90;;;;;;8381818;28;19928;-68
2023/01/11 13:23:24;;;;;;;;;;;11.90;99.90;;;;;;8384616;28;19931;-70
2023/01/11 13:27:27;;;;;;;;;;;11.70;99.90;;;;;;8390089;28;20375;-70
2023/01/11 13:31:30;;;;;;;;;;;11.50;99.90;;;;;;8381750;28;19928;-70
2023/01/11 13:35:35;;;;;;;;;;;11.50;99.90;;;;;;8379113;28;20011;-69
2023/01/11 13:39:40;;;;;;;;;;;11.50;99.90;;;;;;8384576;28;20421;-71
2023/01/11 13:43:49;;;;;;;;;;;11.60;99.90;;;;;;8378311;28;21928;-70
2023/01/11 13:47:56;;;;;;;;;;;11.60;99.90;;;;;;8380833;28;19967;-70
2023/01/11 13:52:01;;;;;;;;;;;11.50;99.90;;;;;;8376953;28;19935;-69
2023/01/11 13:56:11;;;;;;;;;;;11.60;99.90;;;;;;8383838;28;20364;-69
2023/01/11 14:00:16;;;;;;;;;;;11.50;99.90;;;;;;8382605;28;20277;-69
2023/01/11 14:04:21;;;;;;;;;;;11.30;99.90;;;;;;8382594;28;19932;-70
2023/01/11 14:08:41;;;;;;;;;;;11.20;99.90;;;;;;8352771;28;19932;-70
2023/01/11 14:14:11;;;;;;;;;;;11.20;99.90;;;;;;8374211;28;19931;-70
2023/01/11 14:17:44;;;;;;;;;;;11.10;99.90;;;;;;8363020;28;20392;-70
2023/01/11 14:21:46;;;;;;;;;;;11.00;99.90;;;;;;8347168;28;19967;-71
2023/01/11 14:25:50;;;;;;;;;;;10.90;99.90;;;;;;8380193;28;20280;-70
2023/01/11 14:30:03;;;;;;;;;;;10.80;99.90;;;;;;8359743;28;19931;-69
2023/01/11 14:34:10;;;;;;;;;;;10.70;99.90;;;;;;8371939;28;20943;-70
2023/01/11 14:38:27;;;;;;;;;;;10.80;99.90;;;;;;8375943;28;19931;-70
2023/01/11 14:42:28;;;;;;;;;;;10.80;99.90;;;;;;8374423;28;20040;-69
2023/01/11 14:46:35;;;;;;;;;;;10.90;99.90;;;;;;8367772;28;19928;-69
2023/01/11 14:50:54;;;;;;;;;;;10.80;99.90;;;;;;8377169;28;19947;-70
2023/01/11 14:54:57;;;;;;;;;;;10.80;99.90;;;;;;8378365;28;19948;-69
2023/01/11 14:59:04;;;;;;;;;;;10.80;99.90;;;;;;8338565;28;19960;-70
2023/01/11 15:03:09;;;;;;;;;;;10.80;99.90;;;;;;8371737;28;19924;-69
2023/01/11 15:07:29;;;;;;;;;;;10.60;99.90;;;;;;8374446;28;19929;-69
2023/01/11 15:11:35;;;;;;;;;;;10.60;99.90;;;;;;8371421;28;19928;-70
2023/01/11 15:20:04;;;;;;;;;;;10.70;99.90;;;;;;8352945;28;19933;-70
2023/01/11 15:24:19;;;;;;;;;;;10.50;99.90;;;;;;8356459;28;19928;-69
2023/01/11 15:28:36;;;;;;;;;;;10.30;99.90;;;;;;8370336;28;20031;-70
2023/01/11 15:32:37;;;;;;;;;;;10.20;99.90;;;;;;8361521;28;19972;-70
2023/01/11 15:36:52;;;;;;;;;;;10.10;99.90;;;;;;8360603;28;20341;-70
2023/01/11 15:40:55;;;;;;;;;;;10.00;99.90;;;;;;8351288;28;20378;-69
2023/01/11 15:45:06;;;;;;;;;;;9.90;99.90;;;;;;8371997;28;19939;-70
2023/01/11 15:49:08;;;;;;;;;;;9.90;99.90;;;;;;8370560;28;19925;-70
2023/01/11 15:53:28;;;;;;;;;;;9.80;99.90;;;;;;8354173;28;19929;-71
2023/01/11 15:57:39;;;;;;;;;;;9.80;99.90;;;;;;8375457;28;19967;-69
2023/01/11 16:01:52;;;;;;;;;;;9.80;99.90;;;;;;8377278;28;19932;-70
2023/01/11 16:06:06;;;;;;;;;;;9.80;99.90;;;;;;8375535;28;19935;-69
2023/01/11 16:10:07;;;;;;;;;;;9.80;99.90;;;;;;8354079;28;19924;-70
2023/01/11 16:14:35;;;;;;;;;;;9.70;99.90;;;;;;8376096;28;20450;-70
2023/01/11 16:18:42;;;;;;;;;;;9.70;99.90;;;;;;8350087;28;19929;-70
2023/01/11 16:22:55;;;;;;;;;;;9.70;99.90;;;;;;8371275;28;20396;-70
2023/01/11 16:27:00;;;;;;;;;;;9.60;99.90;;;;;;8365824;28;20384;-70
2023/01/11 16:31:04;;;;;;;;;;;9.50;99.90;;;;;;8368758;28;19932;-70
2023/01/11 16:35:16;;;;;;;;;;;9.50;99.90;;;;;;8362349;28;19976;-70
2023/01/11 16:39:21;;;;;;;;;;;9.40;99.90;;;;;;8378163;28;19940;-70
2023/01/11 16:43:23;;;;;;;;;;;9.40;99.90;;;;;;8382822;28;20311;-69
2023/01/11 16:47:25;;;;;;;;;;;9.40;99.90;;;;;;8358776;28;19932;-69
2023/01/11 16:51:26;;;;;;;;;;;9.40;99.90;;;;;;8379956;28;19982;-69
2023/01/11 16:55:29;;;;;;;;;;;9.40;99.90;;;;;;8382195;28;20390;-69
2023/01/11 16:59:33;;;;;;;;;;;9.40;99.90;;;;;;8378901;28;19928;-69
2023/01/11 17:03:35;;;;;;;;;;;9.40;99.90;;;;;;8381651;28;19924;-70
2023/01/11 17:07:36;;;;;;;;;;;9.40;99.90;;;;;;8363683;28;19924;-69
2023/01/11 17:11:45;;;;;;;;;;;9.40;99.90;;;;;;8379319;28;19925;-69
2023/01/11 17:15:52;;;;;;;;;;;9.40;99.90;;;;;;8353149;28;20806;-69
2023/01/11 17:19:54;;;;;;;;;;;9.50;99.90;;;;;;8376342;28;20015;-69
2023/01/11 17:24:01;;;;;;;;;;;9.50;99.90;;;;;;8381928;28;20027;-70
2023/01/11 17:28:05;;;;;;;;;;;9.60;99.90;;;;;;8372909;28;19932;-70
2023/01/11 17:32:12;;;;;;;;;;;9.60;99.90;;;;;;8383937;28;20016;-70
2023/01/11 17:36:15;;;;;;;;;;;9.60;99.90;;;;;;8361290;28;20613;-70
2023/01/11 17:40:19;;;;;;;;;;;9.60;99.90;;;;;;8379731;28;20368;-69
2023/01/11 17:48:56;;;;;;;;;;;9.60;99.90;;;;;;8378914;28;20443;-69
2023/01/11 17:53:15;;;;;;;;;;;9.60;99.90;;;;;;8362568;28;22151;-70
2023/01/11 17:57:18;;;;;;;;;;;9.60;99.90;;;;;;8370399;28;20360;-69
2023/01/11 18:01:22;;;;;;;;;;;9.60;99.90;;;;;;8374335;28;19960;-70
2023/01/11 18:05:25;;;;;;;;;;;9.60;99.90;;;;;;8376722;28;20314;-69
2023/01/11 18:09:31;;;;;;;;;;;9.60;99.90;;;;;;8379888;28;19925;-69
2023/01/11 18:13:33;;;;;;;;;;;9.60;99.90;;;;;;8375939;28;20277;-69
2023/01/11 18:17:37;;;;;;;;;;;9.60;99.90;;;;;;8362522;28;20366;-69
2023/01/11 18:21:48;;;;;;;;;;;9.70;99.90;;;;;;8373202;28;19979;-69
2023/01/11 18:26:10;;;;;;;;;;;9.60;99.90;;;;;;8378864;28;19982;-69
2023/01/11 18:30:34;;;;;;;;;;;9.30;99.90;;;;;;8357838;28;20395;-70
2023/01/11 18:34:36;;;;;;;;;;;9.10;99.90;;;;;;8361602;28;19928;-69
2023/01/11 18:38:38;;;;;;;;;;;9.00;99.90;;;;;;8369038;28;19936;-69
2023/01/11 18:42:39;;;;;;;;;;;8.90;99.90;;;;;;8380916;28;20023;-69
2023/01/11 18:46:41;;;;;;;;;;;8.90;99.90;;;;;;8373373;28;19928;-69
2023/01/11 18:50:43;;;;;;;;;;;8.90;99.90;;;;;;8378844;28;19928;-69
2023/01/11 18:54:45;;;;;;;;;;;8.90;99.90;;;;;;8349245;28;19925;-69
2023/01/11 18:58:49;;;;;;;;;;;9.00;99.90;;;;;;8352847;28;19924;-70
2023/01/11 19:02:51;;;;;;;;;;;9.10;99.90;;;;;;8371796;28;20016;-69
2023/01/11 19:06:52;;;;;;;;;;;9.10;99.90;;;;;;8374583;28;19933;-69
2023/01/11 19:10:54;;;;;;;;;;;9.10;99.90;;;;;;8369843;28;19932;-70
2023/01/11 19:14:56;;;;;;;;;;;9.10;99.90;;;;;;8367232;28;19963;-69
2023/01/11 19:18:57;;;;;;;;;;;9.00;99.90;;;;;;8361023;28;19925;-69
2023/01/11 19:22:59;;;;;;;;;;;8.90;99.90;;;;;;8383226;28;19932;-69
2023/01/11 19:27:01;;;;;;;;;;;8.90;99.90;;;;;;8374152;28;19925;-69
2023/01/11 19:31:06;;;;;;;;;;;8.80;99.90;;;;;;8371207;28;19924;-68
2023/01/11 19:35:08;;;;;;;;;;;8.70;99.90;;;;;;8366635;28;20366;-69
2023/01/11 19:39:10;;;;;;;;;;;8.70;99.90;;;;;;8365195;28;19928;-69
2023/01/11 19:43:12;;;;;;;;;;;8.60;99.90;;;;;;8376657;28;19933;-69
2023/01/11 19:47:16;;;;;;;;;;;8.60;99.90;;;;;;8373235;28;19935;-69
2023/01/11 19:51:19;;;;;;;;;;;8.50;99.90;;;;;;8371785;28;19933;-69
2023/01/11 19:55:21;;;;;;;;;;;8.40;99.90;;;;;;8377780;28;19931;-68
2023/01/11 19:59:22;;;;;;;;;;;8.20;99.90;;;;;;8373518;28;19932;-69
2023/01/11 20:03:27;;;;;;;;;;;8.10;99.90;;;;;;8355570;28;19931;-69
2023/01/11 20:07:29;;;;;;;;;;;8.00;99.90;;;;;;8366406;28;19955;-69
2023/01/11 20:11:31;;;;;;;;;;;8.00;99.90;;;;;;8368756;28;19924;-69
2023/01/11 20:15:35;;;;;;;;;;;8.00;99.90;;;;;;8364584;28;20538;-69
2023/01/11 20:19:36;;;;;;;;;;;8.00;99.90;;;;;;8371122;28;20039;-69
2023/01/11 20:23:38;;;;;;;;;;;8.00;99.90;;;;;;8377956;28;19924;-70
2023/01/11 20:27:43;;;;;;;;;;;8.00;99.90;;;;;;8361072;28;19937;-70
2023/01/11 20:31:45;;;;;;;;;;;8.00;99.90;;;;;;8385201;28;19967;-70
2023/01/11 20:35:48;;;;;;;;;;;8.00;99.90;;;;;;8385512;28;19932;-70
2023/01/11 20:39:50;;;;;;;;;;;8.00;99.90;;;;;;8385734;28;19928;-70
2023/01/11 20:43:51;;;;;;;;;;;8.00;99.90;;;;;;8377708;28;19928;-70
2023/01/11 20:47:53;;;;;;;;;;;8.00;99.90;;;;;;8383633;28;20371;-70
2023/01/11 20:51:55;;;;;;;;;;;8.10;99.90;;;;;;8393162;28;19987;-70
2023/01/11 20:55:57;;;;;;;;;;;8.00;99.90;;;;;;8389908;28;19933;-70
2023/01/11 21:10:06;;;;;;;;;;;8.10;99.90;;;;;;8383024;28;20351;-70
2023/01/11 21:14:10;;;;;;;;;;;8.10;99.90;;;;;;8368177;28;20301;-70
2023/01/11 21:18:13;;;;;;;;;;;8.10;99.90;;;;;;8372208;28;19937;-70
2023/01/11 21:22:15;;;;;;;;;;;8.10;99.90;;;;;;8359106;28;19924;-70
2023/01/11 21:26:17;;;;;;;;;;;8.10;99.90;;;;;;8376589;28;19939;-70
2023/01/11 21:30:20;;;;;;;;;;;8.10;99.90;;;;;;8384973;28;19931;-70
2023/01/11 21:34:22;;;;;;;;;;;8.10;99.90;;;;;;8384841;28;19931;-70
2023/01/11 21:38:23;;;;;;;;;;;8.10;99.90;;;;;;8383371;28;20352;-70
2023/01/11 21:42:25;;;;;;;;;;;8.20;99.90;;;;;;8386727;28;19933;-70
2023/01/11 21:46:27;;;;;;;;;;;8.20;99.90;;;;;;8381570;28;19928;-70
2023/01/11 21:50:30;;;;;;;;;;;8.20;99.90;;;;;;8374919;28;20220;-70
2023/01/11 21:54:32;;;;;;;;;;;8.30;99.90;;;;;;8377256;28;19924;-70
2023/01/11 21:58:34;;;;;;;;;;;8.30;99.90;;;;;;8379658;28;19928;-70
2023/01/11 22:02:35;;;;;;;;;;;8.30;99.90;;;;;;8378525;28;19979;-70
2023/01/11 22:06:38;;;;;;;;;;;8.40;99.90;;;;;;8390470;28;19931;-70
2023/01/11 22:10:40;;;;;;;;;;;8.50;99.90;;;;;;8378773;28;19936;-70
2023/01/11 22:14:42;;;;;;;;;;;8.50;99.90;;;;;;8383954;28;19928;-70
2023/01/11 22:18:44;;;;;;;;;;;8.60;99.90;;;;;;8385719;28;19940;-70
2023/01/11 22:22:46;;;;;;;;;;;8.60;99.90;;;;;;8384800;28;19977;-71
2023/01/11 22:26:47;;;;;;;;;;;8.60;99.90;;;;;;8387167;28;19931;-71
2023/01/11 22:30:49;;;;;;;;;;;8.70;99.90;;;;;;8374195;28;19924;-70
2023/01/11 22:34:51;;;;;;;;;;;8.80;99.90;;;;;;8387437;28;20292;-70
2023/01/11 22:38:53;;;;;;;;;;;8.80;99.90;;;;;;8382648;28;19928;-71
2023/01/11 22:42:54;;;;;;;;;;;8.80;99.90;;;;;;8381114;28;19924;-70
2023/01/11 22:46:56;;;;;;;;;;;8.90;99.90;;;;;;8369560;28;19935;-70
2023/01/11 22:50:58;;;;;;;;;;;8.90;99.90;;;;;;8380551;28;20358;-70
2023/01/11 22:54:59;;;;;;;;;;;8.90;99.90;;;;;;8380896;28;19929;-70
2023/01/11 22:59:01;;;;;;;;;;;8.90;99.90;;;;;;8382938;28;19932;-70
2023/01/11 23:03:03;;;;;;;;;;;8.80;99.90;;;;;;8382337;28;19931;-70
2023/01/11 23:07:04;;;;;;;;;;;8.80;99.90;;;;;;8373104;28;20360;-70
2023/01/11 23:11:07;;;;;;;;;;;8.80;99.90;;;;;;8370911;28;20414;-70
2023/01/11 23:15:09;;;;;;;;;;;8.80;99.90;;;;;;8371705;28;19929;-70
2023/01/11 23:19:11;;;;;;;;;;;8.90;99.90;;;;;;8379893;28;20311;-70
2023/01/11 23:23:13;;;;;;;;;;;8.90;99.90;;;;;;8378022;28;19932;-70
2023/01/11 23:27:14;;;;;;;;;;;8.90;99.90;;;;;;8367834;28;19974;-70
2023/01/11 23:31:18;;;;;;;;;;;9.00;99.90;;;;;;8368451;28;20422;-70
2023/01/11 23:35:20;;;;;;;;;;;9.00;99.90;;;;;;8382254;28;20291;-70
2023/01/11 23:39:22;;;;;;;;;;;9.00;99.90;;;;;;8378857;28;19924;-70
2023/01/11 23:43:24;;;;;;;;;;;9.10;99.90;;;;;;8379078;28;19929;-70
2023/01/11 23:47:28;;;;;;;;;;;9.10;99.90;;;;;;8381715;28;19931;-70
2023/01/11 23:51:30;;;;;;;;;;;9.10;99.90;;;;;;8376051;28;20015;-70
2023/01/11 23:55:32;;;;;;;;;;;9.20;99.90;;;;;;8383677;28;19928;-70
2023/01/11 23:59:33;;;;;;;;;;;9.20;99.90;;;;;;8384880;28;19931;-71
